Latest Weather Observations for Hay Airport

IDN60801

Issued at 11:05 pm EST Tuesday 16 September 2014 (issued every 30 minutes, with the page automatically refreshed every 10 minutes)

About weather observations | Map of weather stations | Latest weather observations for NSW | Other Formats
Station Details ID: 075019 Name: HAY AIRPORT AWS Lat: -34.54 Lon: 144.83 Height: 92.0 m
Data from the previous 72 hours. | See also: Recent months for locations in New South Wales
Date/Time
EST
Temp
°C
App
Temp
°C
Dew
Point
Rel
Hum
%
Delta-T
°C
Wind Press
QNH
hPa
Press
MSL
hPa
Rain
since 9 am
mm
Dir
 
Spd
km/h
Gust
km/h
Spd
kts
Gust
kts
16/11:00pm 9.8 6.1 2.2 59 3.2 SSE 11 15 6 8 1014.9 1014.8 -
16/10:30pm 11.0 7.3 2.6 56 3.6 WSW 11 13 6 7 1014.7 1014.6 -
16/10:00pm 11.0 7.0 2.8 57 3.6 W 13 15 7 8 1014.8 1014.7 -
16/09:30pm 10.6 6.5 2.2 56 3.6 W 13 17 7 9 1014.7 1014.6 -
16/09:00pm 11.3 7.1 1.8 52 4.0 WSW 13 17 7 9 1014.4 1014.3 0.0
16/08:30pm 11.9 7.3 1.8 50 4.3 W 15 19 8 10 1014.2 1014.1 -
16/08:00pm 13.3 8.3 1.6 45 5.1 W 17 19 9 10 1013.8 1013.7 -
16/07:30pm 13.4 8.7 0.8 42 5.4 W 15 19 8 10 1013.4 1013.3 -
16/07:00pm 15.0 10.2 2.5 43 5.6 W 17 20 9 11 1013.0 1012.9 -
16/06:30pm 15.9 11.9 2.7 41 6.0 WSW 13 17 7 9 1012.7 1012.6 -
16/06:00pm 17.7 11.9 2.5 36 7.0 WSW 22 28 12 15 1012.4 1012.3 -
16/05:30pm 19.0 12.2 3.2 35 7.4 WSW 28 41 15 22 1012.1 1012.0 -
16/05:00pm 19.2 12.1 3.8 36 7.3 WSW 30 39 16 21 1011.9 1011.8 -
16/04:30pm 19.0 11.2 4.7 39 6.9 WSW 35 44 19 24 1011.7 1011.6 -
16/04:00pm 19.5 12.3 5.9 41 6.8 WSW 33 46 18 25 1011.6 1011.5 -
16/03:30pm 18.5 12.0 6.7 46 5.9 WSW 30 41 16 22 1011.6 1011.5 -
16/03:00pm 17.6 - 7.6 52 5.1 - - - - - 1011.6 1011.5 -
16/02:30pm 17.2 11.0 7.8 54 4.8 WSW 30 39 16 21 1011.8 1011.7 0.0
16/02:00pm 16.5 9.8 8.0 57 4.3 W 33 44 18 24 1011.8 1011.7 0.0
16/01:30pm 16.9 9.9 8.3 57 4.4 W 35 44 19 24 1011.7 1011.6 0.0
16/01:00pm 16.8 9.7 8.0 56 4.5 W 35 46 19 25 1011.7 1011.6 0.0
16/12:30pm 17.3 10.3 8.4 56 4.6 W 35 43 19 23 1011.6 1011.5 0.0
16/12:00pm 16.2 9.1 8.2 59 4.1 WSW 35 44 19 24 1011.9 1011.8 0.0
16/11:30am 15.3 8.3 8.5 64 3.5 W 35 46 19 25 1012.1 1012.0 0.0
16/11:00am 14.9 8.4 8.8 67 3.1 W 33 43 18 23 1012.1 1012.0 0.0
16/10:30am 14.3 7.8 9.1 71 2.7 WSW 33 43 18 23 1012.1 1012.0 0.0
16/10:00am 13.9 8.8 9.3 74 2.4 W 26 33 14 18 1012.0 1011.9 0.0
16/09:30am 13.5 7.3 9.2 75 2.2 W 32 41 17 22 1012.1 1012.0 0.0
16/09:00am 13.5 7.7 9.6 77 2.0 W 30 41 16 22 1012.1 1012.0 0.0
16/08:30am 13.4 7.2 9.5 77 2.0 W 32 41 17 22 1011.9 1011.8 0.0
16/08:00am 14.1 8.0 9.7 75 2.3 W 32 41 17 22 1011.3 1011.2 0.0
16/07:30am 13.3 7.8 9.2 76 2.1 W 28 37 15 20 1010.8 1010.8 0.0
16/07:00am 13.3 7.1 9.2 76 2.1 W 32 41 17 22 1010.4 1010.4 0.0
16/06:30am 13.3 7.5 9.5 78 1.9 W 30 37 16 20 1010.0 1010.0 0.0
16/06:00am 13.5 7.8 9.9 79 1.9 W 30 41 16 22 1009.6 1009.6 0.0
16/05:30am 13.3 7.7 10.1 81 1.7 W 30 39 16 21 1009.2 1009.2 0.0
16/05:00am 13.1 7.1 10.1 82 1.6 W 32 39 17 21 1008.9 1008.9 0.0
16/04:30am 13.4 7.4 10.2 81 1.7 W 32 43 17 23 1008.7 1008.7 0.0
16/04:00am 13.7 7.7 10.1 79 1.9 W 32 41 17 22 1008.4 1008.4 0.0
16/03:30am 14.2 8.7 9.0 71 2.7 W 28 37 15 20 1008.1 1008.1 0.0
16/03:00am 14.5 8.8 8.5 67 3.0 W 28 37 15 20 1008.0 1008.0 0.0
16/02:30am 14.8 9.0 8.1 64 3.4 W 28 39 15 21 1007.9 1007.9 0.0
16/02:00am 15.0 9.6 7.8 62 3.6 W 26 33 14 18 1008.0 1008.0 0.0
16/01:30am 15.0 10.5 7.1 59 3.9 WNW 20 24 11 13 1008.1 1008.1 0.0
16/01:00am 14.5 10.1 6.6 59 3.9 WNW 19 24 10 13 1008.3 1008.3 0.0
16/12:30am 13.7 9.7 6.6 62 3.4 WNW 17 20 9 11 1008.4 1008.4 0.0
16/12:00am 13.3 10.0 6.2 62 3.4 W 13 15 7 8 1008.3 1008.3 0.0
 
Date/Time
EST
Temp
°C
App
Temp
°C
Dew
Point
Rel
Hum
%
Delta-T
°C
Wind Press
QNH
hPa
Press
MSL
hPa
Rain
since 9 am
mm
Dir
 
Spd
km/h
Gust
km/h
Spd
kts
Gust
kts
15/11:30pm 12.9 9.6 6.5 65 3.1 WNW 13 15 7 8 1008.4 1008.4 0.0
15/11:00pm 12.4 9.6 5.1 61 3.4 W 9 11 5 6 1008.4 1008.4 0.0
15/10:30pm 13.9 10.0 5.5 57 4.0 W 15 17 8 9 1008.7 1008.7 0.0
15/10:00pm 14.7 11.1 5.2 53 4.5 W 13 17 7 9 1008.7 1008.7 0.0
15/09:30pm 15.2 11.5 4.6 49 5.0 W 13 17 7 9 1008.8 1008.8 0.0
15/09:00pm 17.0 13.0 5.0 45 5.8 W 15 20 8 11 1008.8 1008.8 0.0
15/08:30pm 19.1 13.9 5.6 41 6.6 SW 22 28 12 15 1008.3 1008.3 0.0
15/08:00pm 19.6 13.1 4.5 37 7.3 WSW 28 39 15 21 1008.2 1008.2 0.0
15/07:30pm 20.8 14.5 3.5 32 8.3 WSW 26 33 14 18 1007.9 1007.9 0.0
15/07:00pm 22.0 16.3 0.5 24 9.8 NW 20 28 11 15 1007.3 1007.3 0.0
15/06:30pm 22.5 16.8 0.4 23 10.1 NE 20 26 11 14 1006.4 1006.3 0.0
15/06:00pm 23.2 17.1 0.3 22 10.5 NNE 22 32 12 17 1006.4 1006.3 0.0
15/05:30pm 23.8 16.8 -0.5 20 11.0 NNE 26 33 14 18 1006.7 1006.6 0.0
15/05:00pm 25.5 17.4 -0.5 18 12.0 NNE 32 44 17 24 1006.7 1006.6 0.0
15/04:30pm 26.1 17.2 -1.7 16 12.6 NNE 35 50 19 27 1006.8 1006.7 0.0
15/04:08pm 26.0 17.7 -1.7 16 12.5 N 32 50 17 27 1007.1 1007.1 0.0
15/04:00pm 26.3 18.4 -1.5 16 12.7 N 30 41 16 22 1007.2 1007.2 0.0
15/03:30pm 26.7 18.5 -1.2 16 12.8 N 32 41 17 22 1007.5 1007.5 0.0
15/03:00pm 25.1 16.2 -1.6 17 12.0 NNE 35 44 19 24 1007.9 1007.9 0.0
15/02:30pm 25.6 17.2 -1.2 17 12.2 NNE 33 46 18 25 1008.4 1008.4 0.0
15/02:00pm 25.4 17.1 -0.6 18 11.9 NNE 33 48 18 26 1009.2 1009.2 0.0
15/01:30pm 24.2 16.5 -0.2 20 11.2 NNE 30 44 16 24 1010.0 1010.0 0.0
15/01:00pm 23.3 15.2 -0.2 21 10.7 NNE 32 39 17 21 1010.5 1010.5 0.0
15/12:30pm 23.9 16.5 -0.4 20 11.0 N 28 39 15 21 1011.3 1011.2 0.0
15/12:00pm 23.1 15.4 -0.4 21 10.6 N 30 41 16 22 1012.2 1012.1 0.0
15/11:30am 24.0 16.9 1.6 23 10.6 NNE 28 35 15 19 1012.5 1012.4 0.0
15/11:00am 22.2 16.2 1.3 25 9.7 NNE 22 30 12 16 1013.0 1012.9 0.0
15/10:30am 19.8 14.3 1.7 30 8.3 N 20 30 11 16 1013.7 1013.6 0.0
15/10:00am 19.9 14.1 2.3 31 8.2 N 22 28 12 15 1014.1 1014.0 0.0
15/09:30am 18.6 12.4 2.0 33 7.6 N 24 30 13 16 1014.1 1014.0 0.0
15/09:00am 17.8 11.0 2.9 37 6.9 NNE 28 35 15 19 1014.0 1013.9 0.0
15/08:30am 16.7 10.6 3.0 40 6.3 NNE 24 32 13 17 1014.4 1014.3 0.0
15/08:00am 15.4 9.4 3.5 45 5.5 NNE 24 32 13 17 1014.5 1014.4 0.0
15/07:30am 14.0 8.4 3.2 48 4.9 NNE 22 30 12 16 1014.3 1014.2 0.0
15/07:00am 13.2 7.1 3.0 50 4.5 NNE 24 30 13 16 1013.9 1013.8 0.0
15/06:30am 12.6 6.5 2.7 51 4.4 NNE 24 32 13 17 1013.8 1013.7 0.0
15/06:00am 12.5 6.8 2.7 51 4.3 NNE 22 30 12 16 1014.0 1013.9 0.0
15/05:30am 12.8 6.3 2.6 50 4.5 NNE 26 35 14 19 1014.0 1013.9 0.0
15/05:00am 12.5 6.3 2.4 50 4.4 NNE 24 32 13 17 1014.1 1014.0 0.0
15/04:30am 13.0 6.8 2.3 48 4.7 NNE 24 32 13 17 1014.3 1014.2 0.0
15/04:00am 12.9 7.5 2.5 49 4.6 NNE 20 28 11 15 1014.6 1014.5 0.0
15/03:30am 12.4 7.0 2.3 50 4.4 NNE 20 24 11 13 1014.8 1014.7 0.0
15/03:00am 12.0 6.8 2.2 51 4.2 NE 19 24 10 13 1015.3 1015.2 0.0
15/02:30am 12.5 7.3 2.4 50 4.4 NNE 19 24 10 13 1015.7 1015.6 0.0
15/02:00am 12.4 8.4 2.6 51 4.3 NE 13 17 7 9 1015.9 1015.8 0.0
15/01:30am 12.7 8.7 2.6 50 4.4 NE 13 17 7 9 1016.1 1016.0 0.0
15/01:00am 13.0 9.0 2.8 50 4.5 NE 13 17 7 9 1016.3 1016.3 0.0
15/12:30am 12.6 8.5 2.2 49 4.5 ENE 13 15 7 8 1016.5 1016.5 0.0
15/12:00am 12.1 7.9 1.4 48 4.5 E 13 17 7 9 1016.7 1016.7 0.0
 
Date/Time
EST
Temp
°C
App
Temp
°C
Dew
Point
Rel
Hum
%
Delta-T
°C
Wind Press
QNH
hPa
Press
MSL
hPa
Rain
since 9 am
mm
Dir
 
Spd
km/h
Gust
km/h
Spd
kts
Gust
kts
14/11:30pm 12.9 8.6 1.3 45 5.0 ENE 13 15 7 8 1017.0 1017.0 0.0
14/11:00pm 13.7 9.4 1.0 42 5.4 ENE 13 15 7 8 1017.1 1017.1 0.0
14/10:30pm 14.9 10.6 1.1 39 6.0 ENE 13 19 7 10 1017.2 1017.2 0.0
14/10:00pm 14.3 9.6 0.9 40 5.7 NE 15 17 8 9 1017.3 1017.3 0.0
14/09:30pm 14.0 9.7 1.3 42 5.5 NE 13 15 7 8 1017.3 1017.3 0.0
14/09:00pm 12.8 8.9 1.2 45 4.9 NNE 11 13 6 7 1017.3 1017.3 0.0
14/08:30pm 14.1 10.5 0.7 40 5.7 ENE 9 11 5 6 1017.1 1017.1 0.0
14/08:00pm 12.8 9.0 -0.4 40 5.4 ENE 9 11 5 6 1016.9 1016.9 0.0
14/07:30pm 14.6 10.9 0.1 37 6.1 ENE 9 9 5 5 1017.1 1017.1 0.0
14/07:00pm 15.9 12.7 -0.3 33 6.9 E 6 7 3 4 1017.1 1017.1 0.0
14/06:30pm 18.4 16.4 -0.4 28 8.2 CALM 0 0 0 0 1017.1 1017.1 0.0
14/06:00pm 21.4 19.4 0.0 24 9.6 CALM 0 0 0 0 1017.0 1017.0 0.0
14/05:30pm 23.3 20.0 0.4 22 10.5 W 7 13 4 7 1016.9 1016.9 0.0
14/05:00pm 23.9 19.4 -0.4 20 11.0 SW 13 19 7 10 1016.9 1016.9 0.0
14/04:30pm 24.2 20.5 -0.2 20 11.2 WNW 9 17 5 9 1017.0 1017.0 0.0
14/04:00pm 24.0 19.1 -0.3 20 11.1 W 15 22 8 12 1017.2 1017.2 0.0
14/03:30pm 23.5 17.7 -0.1 21 10.8 WNW 20 26 11 14 1017.3 1017.3 0.0
14/03:00pm 23.1 19.8 0.2 22 10.4 NW 7 17 4 9 1017.2 1017.2 0.0
14/02:30pm 23.9 18.8 0.9 22 10.7 NW 17 24 9 13 1017.5 1017.5 0.0
14/02:00pm 24.0 19.7 1.0 22 10.7 NW 13 26 7 14 1018.0 1018.0 0.0
14/01:30pm 23.3 19.8 1.0 23 10.4 WNW 9 22 5 12 1018.4 1018.4 0.0
14/01:00pm 23.2 19.7 1.5 24 10.1 NW 9 15 5 8 1018.8 1018.8 0.0
14/12:30pm 22.9 19.5 1.8 25 9.9 N 9 19 5 10 1019.2 1019.2 0.0
14/12:00pm 22.5 20.0 1.5 25 9.8 NE 4 13 2 7 1019.7 1019.7 0.0
14/11:30am 21.7 17.2 1.9 27 9.2 N 15 24 8 13 1020.2 1020.2 0.0
14/11:00am 21.3 17.3 2.6 29 8.8 N 13 22 7 12 1020.6 1020.6 0.0
14/10:30am 20.6 15.9 3.3 32 8.2 N 17 24 9 13 1020.9 1020.9 0.0
14/10:00am 18.9 14.3 3.5 36 7.2 NNE 17 22 9 12 1021.1 1021.1 0.0
14/09:30am 18.0 14.4 4.9 42 6.3 NNE 13 20 7 11 1021.4 1021.4 0.0
14/09:00am 16.1 12.1 5.1 48 5.2 NE 15 17 8 9 1021.4 1021.4 0.0
14/08:30am 14.4 10.9 5.5 55 4.2 NE 13 17 7 9 1021.3 1021.3 0.0
14/08:00am 12.3 8.3 4.8 60 3.4 NE 15 17 8 9 1021.1 1021.1 0.0
14/07:30am 10.5 7.6 4.9 68 2.5 NE 9 13 5 7 1021.0 1021.0 0.0
14/07:00am 8.7 5.5 5.3 79 1.5 NNE 11 13 6 7 1020.9 1020.9 0.0
14/06:30am 6.9 3.5 4.2 83 1.2 NNE 11 11 6 6 1020.7 1020.7 0.0
14/06:00am 6.0 2.5 3.7 85 1.0 NE 11 11 6 6 1020.5 1020.5 0.0
14/05:30am 5.0 1.7 2.4 83 1.1 NNE 9 9 5 5 1020.6 1020.6 0.0
14/05:00am 5.2 2.2 1.7 78 1.4 NE 7 7 4 4 1020.6 1020.6 0.0
14/04:30am 6.9 4.1 3.0 76 1.6 ENE 7 9 4 5 1020.6 1020.6 0.0
14/04:00am 8.4 4.7 4.4 76 1.8 ENE 13 15 7 8 1020.7 1020.7 0.0
14/03:30am 7.1 3.3 4.1 81 1.3 E 13 13 7 7 1021.0 1021.0 0.0
14/03:00am 5.4 2.0 2.1 79 1.3 E 9 11 5 6 1021.3 1021.3 0.0
14/02:30am 5.5 2.1 1.8 77 1.5 E 9 9 5 5 1021.5 1021.5 0.0
14/02:00am 6.1 3.0 1.6 73 1.8 ENE 7 9 4 5 1021.9 1021.9 0.0
14/01:30am 8.0 4.7 2.7 69 2.2 E 9 11 5 6 1021.9 1021.9 0.0
14/01:00am 8.8 5.6 3.0 67 2.5 E 9 11 5 6 1021.9 1021.9 0.0
14/12:30am 8.5 4.9 2.9 68 2.4 E 11 13 6 7 1022.1 1022.1 0.0
14/12:00am 8.4 5.1 2.6 67 2.4 E 9 11 5 6 1022.2 1022.2 0.0
 
Date/Time
EST
Temp
°C
App
Temp
°C
Dew
Point
Rel
Hum
%
Delta-T
°C
Wind Press
QNH
hPa
Press
MSL
hPa
Rain
since 9 am
mm
Dir
 
Spd
km/h
Gust
km/h
Spd
kts
Gust
kts
13/11:30pm 8.5 5.1 1.6 62 2.8 E 9 9 5 5 1022.3 1022.3 0.0

Other Formats:

Comma delimited format used in spreadsheet applications
http://www.bom.gov.au/fwo/IDN60801/IDN60801.94702.axf

JavaScript Object Notation format (JSON) in row-major order
http://www.bom.gov.au/fwo/IDN60801/IDN60801.94702.json